Time;durP1;ratioP1;P1;durP2;ratioP2;P2;SDS_P1;SDS_P2;PMS_P1;PMS_P2;Temp;Humidity;BMP_temperature;BMP_pressure;BME280_temperature;BME280_humidity;BME280_pressure;Samples;Min_cycle;Max_cycle;Signal;HPM_P1;HPM_P2
2022/04/25 00:09:55;;;;;;;25.08;17.75;;;10.80;99.90;;;;;;6741256;88;20210;-79
2022/04/25 00:19:56;;;;;;;25.17;17.90;;;10.90;99.90;;;;;;6737571;88;20210;-79
2022/04/25 00:29:56;;;;;;;29.45;18.17;;;10.80;99.90;;;;;;6738101;88;20188;-79
2022/04/25 00:39:57;;;;;;;24.90;17.33;;;10.80;99.90;;;;;;6740850;88;20326;-79
2022/04/25 00:49:57;;;;;;;22.58;15.52;;;11.10;99.90;;;;;;6740840;88;20582;-79
2022/04/25 00:59:59;;;;;;;20.53;14.77;;;11.00;99.90;;;;;;6740689;88;20724;-80
2022/04/25 01:10:00;;;;;;;20.15;14.13;;;10.70;99.90;;;;;;6740142;88;20666;-79
2022/04/25 01:20:01;;;;;;;19.08;13.35;;;10.60;99.90;;;;;;6740036;88;20209;-79
2022/04/25 01:30:03;;;;;;;14.32;10.77;;;10.80;99.90;;;;;;6739960;88;20648;-79
2022/04/25 01:40:04;;;;;;;14.25;10.02;;;10.50;99.90;;;;;;6740429;88;20183;-79
2022/04/25 01:50:06;;;;;;;9.55;7.60;;;10.00;99.90;;;;;;6739931;88;20203;-79
2022/04/25 02:00:07;;;;;;;7.40;5.20;;;9.70;99.90;;;;;;6735011;88;20188;-78
2022/04/25 02:10:08;;;;;;;5.95;3.90;;;9.50;99.90;;;;;;6738919;88;20220;-78
2022/04/25 02:31:10;;;;;;;3.75;2.37;;;9.00;99.90;;;;;;6725980;88;20181;-78
2022/04/25 02:41:11;;;;;;;4.70;2.50;;;8.80;99.90;;;;;;6726522;88;20193;-78
2022/04/25 02:51:13;;;;;;;3.58;2.20;;;8.60;99.90;;;;;;6726623;88;20790;-78
2022/04/25 03:01:13;;;;;;;3.97;2.60;;;8.70;99.90;;;;;;6726323;88;20351;-82
2022/04/25 03:11:14;;;;;;;3.62;2.30;;;8.70;99.90;;;;;;6726778;88;20274;-78
2022/04/25 03:21:14;;;;;;;4.32;2.40;;;8.70;99.90;;;;;;6723572;88;22605;-79
2022/04/25 03:31:15;;;;;;;4.40;2.40;;;8.60;99.90;;;;;;6758401;88;20325;-78
2022/04/25 03:41:15;;;;;;;4.12;2.47;;;8.70;99.90;;;;;;6760023;88;20246;-79
2022/04/25 03:51:16;;;;;;;4.72;3.25;;;8.50;99.90;;;;;;6760973;88;20214;-78
2022/04/25 04:01:16;;;;;;;5.90;3.70;;;8.40;99.90;;;;;;6763356;88;20208;-78
2022/04/25 04:11:17;;;;;;;6.62;4.47;;;8.60;99.90;;;;;;6765322;87;20225;-79
2022/04/25 04:21:17;;;;;;;8.07;5.53;;;8.50;99.90;;;;;;6759130;88;20214;-79
2022/04/25 04:31:18;;;;;;;8.82;6.18;;;8.60;99.90;;;;;;6709093;88;20264;-78
2022/04/25 04:41:18;;;;;;;10.07;6.30;;;8.60;99.90;;;;;;6707478;88;20198;-78
2022/04/25 04:51:19;;;;;;;12.43;6.72;;;8.50;99.90;;;;;;6751915;88;20188;-78
2022/04/25 05:01:19;;;;;;;11.48;7.05;;;8.40;99.90;;;;;;6762862;87;20647;-78
2022/04/25 05:11:21;;;;;;;10.05;6.47;;;8.20;99.90;;;;;;6766118;87;20183;-79
2022/04/25 05:21:21;;;;;;;10.50;6.78;;;8.10;99.90;;;;;;6764754;87;20637;-79
2022/04/25 05:31:22;;;;;;;13.88;8.50;;;8.00;99.90;;;;;;6762357;88;20199;-79
2022/04/25 05:41:23;;;;;;;14.18;8.25;;;8.00;99.90;;;;;;6761670;87;20188;-79
2022/04/25 06:01:43;;;;;;;15.30;8.90;;;8.10;99.90;;;;;;6761713;88;21048;-79
2022/04/25 06:11:44;;;;;;;11.63;7.00;;;8.30;99.90;;;;;;6765354;88;20377;-78
2022/04/25 06:32:47;;;;;;;11.80;8.77;;;8.60;99.90;;;;;;6772453;88;20182;-80
2022/04/25 06:42:48;;;;;;;10.15;7.22;;;8.80;99.90;;;;;;6768997;87;20187;-80
2022/04/25 06:52:48;;;;;;;8.18;5.68;;;9.60;99.90;;;;;;6764440;88;20217;-78
2022/04/25 07:02:51;;;;;;;10.32;6.45;;;10.10;99.90;;;;;;6763381;87;20202;-79
2022/04/25 07:12:52;;;;;;;9.43;6.40;;;10.40;99.90;;;;;;6758344;87;20183;-79
2022/04/25 07:33:12;;;;;;;11.82;6.22;;;10.90;99.90;;;;;;6762403;87;20180;-78
2022/04/25 07:43:12;;;;;;;9.07;5.07;;;11.50;99.90;;;;;;6765291;87;20208;-79
2022/04/25 07:53:13;;;;;;;11.07;6.18;;;12.90;99.90;;;;;;6761442;87;20223;-79
2022/04/25 08:03:14;;;;;;;8.18;5.45;;;13.00;99.90;;;;;;6747915;88;20199;-80
2022/04/25 08:34:36;;;;;;;14.27;10.10;;;12.70;99.90;;;;;;6671445;88;20202;-80
2022/04/25 08:44:38;;;;;;;15.30;11.95;;;12.40;99.90;;;;;;6669943;89;20183;-80
2022/04/25 08:54:39;;;;;;;17.20;12.98;;;12.40;99.90;;;;;;6669543;88;20827;-79
2022/04/25 09:04:39;;;;;;;14.73;10.43;;;13.20;99.90;;;;;;6669724;89;20186;-79
2022/04/25 09:14:42;;;;;;;17.08;11.63;;;12.90;99.90;;;;;;6669606;89;20196;-79
2022/04/25 09:24:44;;;;;;;15.02;11.07;;;12.70;99.90;;;;;;6673272;88;20202;-79
2022/04/25 09:35:02;;;;;;;16.73;11.65;;;12.70;99.90;;;;;;6673297;89;20221;-77
2022/04/25 09:45:05;;;;;;;13.20;10.30;;;12.90;99.90;;;;;;6672905;88;20171;-77
2022/04/25 09:55:16;;;;;;;13.43;9.90;;;13.30;99.90;;;;;;6669854;89;20669;-77
2022/04/25 10:05:17;;;;;;;12.05;9.73;;;13.80;99.90;;;;;;6668815;89;20276;-78
2022/04/25 10:15:17;;;;;;;13.02;9.35;;;15.10;99.90;;;;;;6672543;89;20234;-78
2022/04/25 10:25:18;;;;;;;11.18;9.20;;;16.30;99.90;;;;;;6671401;88;20220;-78
2022/04/25 10:35:32;;;;;;;8.88;7.30;;;16.90;99.90;;;;;;6672155;88;20348;-78
2022/04/25 10:46:00;;;;;;;9.52;7.85;;;17.90;99.90;;;;;;6672720;89;20170;-78
2022/04/25 10:56:08;;;;;;;8.85;7.57;;;18.40;99.90;;;;;;6670709;89;20261;-78
2022/04/25 11:06:24;;;;;;;11.32;7.65;;;18.80;99.90;;;;;;6665981;89;20738;-78
2022/04/25 11:16:26;;;;;;;10.50;7.87;;;17.30;99.90;;;;;;6669300;89;20226;-77
2022/04/25 11:26:29;;;;;;;9.32;6.97;;;16.10;99.90;;;;;;6668800;88;20741;-78
2022/04/25 11:36:31;;;;;;;8.05;5.72;;;15.80;99.90;;;;;;6653012;89;20663;-78
2022/04/25 11:46:34;;;;;;;6.72;4.87;;;16.50;99.90;;;;;;6652155;89;20279;-78
2022/04/25 11:56:37;;;;;;;5.30;4.40;;;16.30;99.90;;;;;;6655019;89;20206;-78
2022/04/25 12:06:37;;;;;;;5.93;4.20;;;17.20;99.90;;;;;;6651039;89;20191;-79
2022/04/25 12:16:38;;;;;;;5.62;4.07;;;18.30;99.90;;;;;;6651684;89;20207;-78
2022/04/25 12:26:42;;;;;;;5.27;4.00;;;17.40;99.90;;;;;;6659697;87;20206;-79
2022/04/25 12:36:56;;;;;;;3.12;2.47;;;18.00;99.90;;;;;;6739524;88;20547;-79
2022/04/25 12:46:59;;;;;;;3.90;2.70;;;17.80;97.90;;;;;;6745373;88;20340;-78
2022/04/25 12:57:23;;;;;;;4.37;2.78;;;17.70;95.90;;;;;;6742044;88;20207;-79
2022/04/25 13:07:31;;;;;;;8.18;5.40;;;17.00;97.70;;;;;;6747625;88;20195;-78
2022/04/25 13:17:32;;;;;;;6.43;5.12;;;14.30;99.90;;;;;;6746962;88;20267;-78
2022/04/25 13:27:34;;;;;;;5.50;4.18;;;12.30;99.90;;;;;;6730802;88;20331;-79
2022/04/25 13:37:35;;;;;;;3.10;2.37;;;12.30;99.90;;;;;;6666566;89;20199;-78
2022/04/25 13:47:35;;;;;;;2.90;1.70;;;12.60;99.90;;;;;;6665580;89;20711;-77
2022/04/25 13:57:38;;;;;;;2.53;1.60;;;13.20;99.90;;;;;;6664497;89;20450;-78
2022/04/25 14:07:38;;;;;;;2.95;2.30;;;14.70;99.90;;;;;;6663679;89;20292;-77
2022/04/25 14:27:42;;;;;;;3.15;2.30;;;16.20;98.10;;;;;;6758164;88;20270;-81
2022/04/25 14:37:43;;;;;;;4.37;2.95;;;15.40;99.90;;;;;;6758760;88;20361;-82
2022/04/25 14:47:47;;;;;;;4.15;3.30;;;16.00;99.90;;;;;;6753966;88;20185;-81
2022/04/25 14:57:51;;;;;;;7.75;4.72;;;16.00;99.90;;;;;;6758700;88;20740;-83
2022/04/25 15:07:51;;;;;;;6.90;5.00;;;16.30;99.90;;;;;;6759045;88;20188;-82
2022/04/25 15:17:52;;;;;;;5.75;4.82;;;16.60;99.90;;;;;;6757535;88;20212;-82
2022/04/25 15:27:52;;;;;;;5.37;4.50;;;16.30;99.90;;;;;;6759201;88;20191;-82
2022/04/25 15:37:53;;;;;;;4.37;3.30;;;16.70;99.90;;;;;;6756237;88;20298;-83
2022/04/25 15:47:58;;;;;;;4.40;2.92;;;17.30;99.90;;;;;;6760218;88;22274;-81
2022/04/25 15:57:59;;;;;;;3.05;2.40;;;17.70;99.20;;;;;;6740150;88;20215;-82
2022/04/25 16:08:00;;;;;;;3.70;2.70;;;17.90;97.50;;;;;;6744551;88;20166;-79
2022/04/25 16:18:03;;;;;;;3.83;2.90;;;18.00;97.40;;;;;;6743110;88;20208;-81
2022/04/25 16:28:04;;;;;;;4.70;4.03;;;17.80;98.10;;;;;;6749184;88;20841;-81
2022/04/25 16:38:05;;;;;;;7.82;5.68;;;17.20;99.50;;;;;;6751664;88;20182;-80
2022/04/25 16:48:05;;;;;;;7.07;5.53;;;16.60;99.90;;;;;;6715055;88;20193;-81
2022/04/25 16:58:06;;;;;;;6.03;5.18;;;15.80;99.90;;;;;;6713336;88;20277;-82
2022/04/25 17:08:07;;;;;;;7.40;5.05;;;15.70;99.90;;;;;;6709931;88;20195;-82
2022/04/25 17:18:07;;;;;;;7.43;4.53;;;15.40;99.90;;;;;;6738307;88;20187;-82
2022/04/25 17:28:10;;;;;;;6.43;5.20;;;15.80;99.90;;;;;;6728769;88;20192;-80
